Time;durP1;ratioP1;P1;durP2;ratioP2;P2;SDS_P1;SDS_P2;PMS_P1;PMS_P2;Temp;Humidity;BMP_temperature;BMP_pressure;BME280_temperature;BME280_humidity;BME280_pressure;Samples;Min_cycle;Max_cycle;Signal;HPM_P1;HPM_P2
2021/05/06 00:02:28;;;;;;;6.77;2.87;;;;;;;6.87;57.47;99433.20;127559;1107;23284;-77
2021/05/06 00:30:17;;;;;;;5.30;2.88;;;;;;;6.62;58.59;99450.77;128217;1098;24234;-78
2021/05/06 00:32:57;;;;;;;5.10;2.28;;;;;;;6.62;58.84;99466.51;128135;1098;25003;-77
2021/05/06 00:35:27;;;;;;;5.78;2.70;;;;;;;6.64;58.86;99463.73;127998;1101;22339;-79
2021/05/06 01:05:53;;;;;;;6.05;2.50;;;;;;;6.45;59.64;99484.05;126960;1111;22373;-78
2021/05/06 01:08:30;;;;;;;7.15;2.70;;;;;;;6.43;59.77;99482.56;126952;1108;22412;-78
2021/05/06 01:11:06;;;;;;;5.05;2.30;;;;;;;6.40;59.65;99478.48;126946;1108;24617;-77
2021/05/06 01:13:38;;;;;;;3.78;1.95;;;;;;;6.39;59.74;99486.50;126967;1108;22389;-78
2021/05/06 01:16:07;;;;;;;5.15;2.35;;;;;;;6.32;59.74;99481.89;127050;1106;22399;-78
2021/05/06 01:18:35;;;;;;;7.18;2.73;;;;;;;6.29;59.89;99484.84;127333;1104;22378;-78
2021/05/06 01:21:05;;;;;;;4.15;2.08;;;;;;;6.27;59.97;99486.00;127680;1104;22804;-77
2021/05/06 01:23:40;;;;;;;4.43;2.30;;;;;;;6.25;60.03;99486.14;127938;1104;23054;-77
2021/05/06 01:29:15;;;;;;;5.68;2.55;;;;;;;6.25;60.07;99487.95;127246;1108;22374;-75
2021/05/06 01:31:51;;;;;;;6.83;2.65;;;;;;;6.27;60.00;99497.31;127585;1104;22375;-75
2021/05/06 01:34:23;;;;;;;6.33;2.68;;;;;;;6.29;60.11;99500.58;127540;1107;22394;-77
2021/05/06 01:37:10;;;;;;;4.08;2.30;;;;;;;6.31;60.02;99493.38;127496;1107;22408;-76
2021/05/06 01:42:51;;;;;;;4.57;3.00;;;;;;;6.26;59.62;99485.16;127876;1104;22367;-77
2021/05/06 01:45:44;;;;;;;4.98;2.45;;;;;;;6.26;59.70;99489.58;127846;1101;24515;-78
2021/05/06 01:59:43;;;;;;;7.18;2.98;;;;;;;6.10;59.86;99504.32;127516;1104;24513;-76
2021/05/06 02:02:12;;;;;;;;;;;;;;;6.05;59.55;99493.47;127641;1107;22370;-76
2021/05/06 02:04:41;;;;;;;6.00;2.50;;;;;;;6.02;59.90;99508.70;127548;1107;21274;-77
2021/05/06 02:07:10;;;;;;;7.55;3.05;;;;;;;6.01;59.81;99497.41;127550;1105;24604;-79
2021/05/06 02:09:49;;;;;;;4.78;2.75;;;;;;;6.02;59.68;99499.03;127739;1101;22370;-77
2021/05/06 02:12:20;;;;;;;5.78;3.23;;;;;;;6.03;59.76;99505.09;127976;1104;23402;-76
2021/05/06 02:15:01;;;;;;;7.70;3.35;;;;;;;6.00;59.78;99503.63;128023;1101;22465;-76
2021/05/06 02:17:30;;;;;;;9.60;3.18;;;;;;;5.96;59.69;99499.66;128132;1101;22440;-75
2021/05/06 02:19:59;;;;;;;7.75;2.90;;;;;;;5.94;59.75;99509.50;127663;1101;24317;-76
2021/05/06 02:22:28;;;;;;;6.73;2.98;;;;;;;5.90;59.69;99500.30;127505;1107;22443;-76
2021/05/06 02:24:57;;;;;;;8.73;4.55;;;;;;;5.87;59.76;99511.09;127494;1108;22844;-76
2021/05/06 02:27:26;;;;;;;16.70;5.65;;;;;;;5.84;59.78;99503.54;127489;1105;22406;-76
2021/05/06 02:29:55;;;;;;;12.18;4.75;;;;;;;5.83;60.08;99515.83;127538;1105;24190;-76
2021/05/06 02:32:24;;;;;;;7.85;3.88;;;;;;;5.85;60.11;99510.41;127512;1108;22550;-77
2021/05/06 02:34:55;;;;;;;9.93;3.73;;;;;;;5.86;60.18;99505.03;127560;1108;22399;-78
2021/05/06 02:37:26;;;;;;;4.63;2.53;;;;;;;5.86;60.19;99514.67;127094;1106;22412;-78
2021/05/06 02:39:55;;;;;;;6.10;2.78;;;;;;;5.86;60.09;99519.91;127648;1104;25048;-77
2021/05/06 02:42:25;;;;;;;6.28;3.30;;;;;;;5.83;60.23;99517.60;127973;1101;24497;-77
2021/05/06 02:44:53;;;;;;;5.47;2.60;;;;;;;5.81;59.96;99522.20;127606;1108;22927;-77
2021/05/06 02:47:22;;;;;;;6.95;2.88;;;;;;;5.77;60.04;99518.26;127519;1107;22402;-78
2021/05/06 02:49:54;;;;;;;6.93;2.85;;;;;;;5.71;59.98;99524.94;127560;1105;22396;-77
2021/05/06 02:52:33;;;;;;;8.35;2.73;;;;;;;5.69;59.93;99523.45;127552;1106;22377;-77
2021/05/06 02:57:42;;;;;;;5.85;2.65;;;;;;;5.61;60.21;99530.29;127976;1105;22366;-78
2021/05/06 03:03:04;;;;;;;7.40;2.83;;;;;;;5.58;60.38;99530.60;128108;1101;22806;-78
2021/05/06 03:05:37;;;;;;;12.48;4.03;;;;;;;5.59;60.59;99534.86;128079;1098;24482;-77
2021/05/06 03:11:06;;;;;;;11.40;3.68;;;;;;;5.56;60.64;99550.06;128010;1104;22409;-76
2021/05/06 03:24:32;;;;;;;7.85;2.63;;;;;;;5.41;61.12;99545.41;127646;1105;22398;-79
2021/05/06 03:27:03;;;;;;;13.93;4.10;;;;;;;5.45;61.28;99553.77;127926;1102;22350;-81
2021/05/06 03:29:40;;;;;;;9.68;3.70;;;;;;;5.50;61.25;99558.53;128051;1102;22357;-74
2021/05/06 03:32:35;;;;;;;6.00;3.33;;;;;;;5.49;61.31;99562.14;128205;1098;22362;-74
2021/05/06 03:35:16;;;;;;;6.95;2.85;;;;;;;5.45;61.32;99566.05;128214;1098;24176;-76
2021/05/06 04:17:11;;;;;;;6.27;2.90;;;;;;;6.27;60.37;99615.34;128211;1098;24517;-75
2021/05/06 04:25:31;;;;;;;8.78;4.38;;;;;;;6.43;60.05;99624.23;128212;1098;24252;-76
2021/05/06 04:31:02;;;;;;;9.05;2.93;;;;;;;6.78;59.32;99624.02;128032;1098;24482;-75
2021/05/06 04:37:05;;;;;;;8.63;3.28;;;;;;;7.02;58.42;99632.91;128236;1098;24526;-76
2021/05/06 04:39:12;;;;;;;7.95;3.03;;;;;;;7.14;58.07;99633.43;128174;1101;22374;-74
2021/05/06 04:41:52;;;;;;;11.90;2.95;;;;;;;7.28;58.25;99635.40;128253;1101;22346;-74
2021/05/06 04:45:15;;;;;;;10.28;4.43;;;;;;;7.44;57.99;99632.77;128215;1101;22359;-76
2021/05/06 04:55:49;;;;;;;7.50;3.60;;;;;;;8.22;56.48;99631.30;128201;1101;22348;-74
2021/05/06 05:06:20;;;;;;;11.43;4.25;;;;;;;9.05;54.76;99646.53;127980;1104;22359;-76
2021/05/06 05:25:06;;;;;;;10.63;3.33;;;;;;;10.65;51.20;99646.30;127878;1104;22355;-75
2021/05/06 05:27:35;;;;;;;10.83;4.33;;;;;;;10.98;51.50;99655.42;128016;1104;22645;-75
2021/05/06 05:30:07;;;;;;;12.78;4.43;;;;;;;11.33;50.48;99649.44;128027;1104;22518;-76
2021/05/06 05:32:48;;;;;;;12.55;3.10;;;;;;;11.67;49.25;99657.48;127976;1104;22367;-77
2021/05/06 05:35:40;;;;;;;9.68;3.63;;;;;;;11.91;48.81;99658.91;128141;1101;22400;-75
2021/05/06 05:38:27;;;;;;;6.98;3.23;;;;;;;12.27;48.27;99659.74;128255;1098;22888;-76
2021/05/06 05:44:00;;;;;;;7.73;3.60;;;;;;;12.64;46.64;99663.78;128058;1098;24176;-76
2021/05/06 05:56:53;;;;;;;7.95;3.50;;;;;;;13.39;44.59;99653.98;127994;1101;22466;-77
2021/05/06 05:59:22;;;;;;;8.13;3.35;;;;;;;13.54;43.97;99664.42;128071;1104;22349;-75
2021/05/06 06:01:51;;;;;;;9.48;4.68;;;;;;;13.71;43.74;99659.52;127990;1104;22418;-76
2021/05/06 06:04:20;;;;;;;6.03;3.57;;;;;;;13.86;43.52;99668.91;128071;1102;22443;-77
2021/05/06 06:06:48;;;;;;;7.50;3.38;;;;;;;14.15;43.22;99652.71;128269;1101;22334;-75
2021/05/06 06:09:17;;;;;;;7.00;3.13;;;;;;;14.32;42.03;99661.86;128249;1101;22366;-77
2021/05/06 06:11:46;;;;;;;8.15;3.33;;;;;;;14.42;41.35;99658.77;128067;1101;22449;-76
2021/05/06 06:14:21;;;;;;;10.33;4.13;;;;;;;14.39;40.79;99672.47;128257;1101;22330;-76
2021/05/06 06:16:52;;;;;;;7.28;3.35;;;;;;;14.35;40.66;99664.09;128179;1101;22445;-75
2021/05/06 06:19:25;;;;;;;5.48;2.83;;;;;;;14.32;40.70;99665.33;128241;1098;24169;-75
2021/05/06 06:22:00;;;;;;;6.90;3.55;;;;;;;14.39;41.07;99661.84;128189;1101;22368;-75
2021/05/06 06:24:29;;;;;;;8.80;3.70;;;;;;;14.31;40.26;99662.89;128286;1098;24996;-78
2021/05/06 06:26:58;;;;;;;8.13;3.67;;;;;;;14.41;40.81;99663.27;128044;1102;22348;-76
2021/05/06 06:29:33;;;;;;;9.28;2.95;;;;;;;14.41;40.00;99663.27;128212;1101;22345;-81
2021/05/06 06:32:05;;;;;;;9.78;4.25;;;;;;;14.39;40.23;99656.52;127931;1101;24488;-75
2021/05/06 06:34:33;;;;;;;;;;;;;;;14.61;40.39;99676.52;127991;1104;22374;-75
2021/05/06 06:37:02;;;;;;;11.43;3.90;;;;;;;14.53;39.68;99661.63;127988;1104;21734;-76
2021/05/06 06:39:31;;;;;;;11.48;5.08;;;;;;;14.64;39.15;99662.00;127940;1101;22495;-76
2021/05/06 06:42:00;;;;;;;13.53;6.35;;;;;;;14.88;39.43;99663.11;127759;1101;24495;-74
2021/05/06 06:44:30;;;;;;;9.33;5.10;;;;;;;15.07;38.36;99675.48;127975;1105;22526;-74
2021/05/06 06:47:06;;;;;;;10.43;4.95;;;;;;;15.31;37.77;99673.90;127585;1108;22363;-74
2021/05/06 06:49:40;;;;;;;14.65;3.83;;;;;;;15.39;36.80;99678.14;127538;1105;22469;-76
2021/05/06 06:52:11;;;;;;;7.15;3.13;;;;;;;15.12;36.02;99678.30;128095;1101;24528;-75
2021/05/06 06:54:40;;;;;;;10.95;3.18;;;;;;;14.89;36.46;99678.02;128037;1102;22936;-75
2021/05/06 06:57:09;;;;;;;10.28;3.73;;;;;;;14.85;36.57;99676.82;127969;1101;24505;-75
2021/05/06 06:59:38;;;;;;;5.55;2.63;;;;;;;14.74;36.10;99678.31;127951;1101;22372;-75
2021/05/06 07:02:07;;;;;;;11.83;3.30;;;;;;;14.63;35.84;99684.27;127994;1104;22478;-75
2021/05/06 07:04:36;;;;;;;9.65;2.58;;;;;;;14.57;35.88;99680.63;127578;1104;22414;-75
2021/05/06 07:07:04;;;;;;;10.25;3.20;;;;;;;14.51;35.58;99671.64;127648;1105;22394;-76
2021/05/06 07:09:33;;;;;;;6.25;2.30;;;;;;;14.63;35.68;99679.80;127970;1104;22371;-75
2021/05/06 07:12:02;;;;;;;11.35;3.03;;;;;;;14.81;35.83;99677.25;127559;1108;22987;-74
2021/05/06 07:14:36;;;;;;;6.38;2.65;;;;;;;14.78;34.93;99672.34;127547;1105;25232;-75
2021/05/06 07:17:12;;;;;;;11.45;2.63;;;;;;;14.54;34.53;99687.17;127539;1103;22481;-75
2021/05/06 07:19:43;;;;;;;10.70;4.55;;;;;;;14.52;34.92;99678.58;127522;1104;24217;-75
2021/05/06 07:22:12;;;;;;;19.53;5.23;;;;;;;14.68;35.11;99684.47;127639;1105;22371;-76
2021/05/06 07:24:43;;;;;;;5.98;3.03;;;;;;;14.90;34.27;99683.15;128008;1104;22374;-77
2021/05/06 07:27:18;;;;;;;12.10;4.20;;;;;;;14.98;33.64;99674.91;127578;1108;23236;-77
2021/05/06 07:29:50;;;;;;;8.63;3.03;;;;;;;14.98;33.25;99676.76;127607;1105;22398;-77
2021/05/06 07:32:21;;;;;;;8.33;3.63;;;;;;;15.16;33.54;99679.53;128005;1104;22380;-77
2021/05/06 07:34:52;;;;;;;9.40;3.30;;;;;;;15.31;33.18;99681.88;128030;1101;24498;-77
2021/05/06 07:37:23;;;;;;;8.00;2.57;;;;;;;15.35;32.81;99684.92;128035;1104;22374;-77
2021/05/06 07:39:55;;;;;;;4.83;2.45;;;;;;;15.46;32.66;99695.71;127544;1107;22548;-77
2021/05/06 07:42:26;;;;;;;7.43;3.30;;;;;;;15.58;32.54;99685.17;128001;1104;22558;-76
2021/05/06 07:44:57;;;;;;;6.85;2.68;;;;;;;15.63;32.06;99681.88;127717;1100;24183;-76
2021/05/06 07:47:27;;;;;;;11.55;3.40;;;;;;;15.62;32.33;99681.03;128040;1104;22814;-76
2021/05/06 07:50:01;;;;;;;10.80;3.63;;;;;;;15.72;32.61;99685.91;128038;1104;22370;-76
2021/05/06 07:52:34;;;;;;;8.47;2.63;;;;;;;15.94;32.45;99686.34;128010;1104;22371;-76
2021/05/06 07:55:07;;;;;;;11.53;4.40;;;;;;;16.07;31.97;99691.55;128136;1101;22465;-75
2021/05/06 07:57:36;;;;;;;12.18;8.03;;;;;;;16.32;32.30;99686.16;128071;1098;24472;-76
2021/05/06 08:00:12;;;;;;;7.60;5.38;;;;;;;16.49;31.82;99678.38;128248;1101;23092;-76
2021/05/06 08:02:42;;;;;;;11.00;4.08;;;;;;;16.66;31.64;99689.25;127979;1104;22389;-76
2021/05/06 08:05:13;;;;;;;7.68;3.50;;;;;;;16.50;31.63;99690.70;127982;1104;22375;-76
2021/05/06 08:07:43;;;;;;;5.63;3.13;;;;;;;16.09;31.43;99694.78;127936;1101;24371;-77
2021/05/06 08:10:13;;;;;;;5.95;2.73;;;;;;;15.74;32.31;99679.33;128047;1104;22378;-78
2021/05/06 08:12:45;;;;;;;8.73;3.65;;;;;;;15.57;32.43;99696.86;127956;1104;22404;-77
2021/05/06 08:15:14;;;;;;;6.90;3.20;;;;;;;15.61;33.08;99686.59;128030;1101;22381;-76
2021/05/06 08:17:44;;;;;;;7.90;3.35;;;;;;;15.62;32.41;99690.88;127985;1105;22398;-76
2021/05/06 08:20:14;;;;;;;6.00;2.60;;;;;;;15.73;32.90;99691.03;127970;1102;22384;-76
2021/05/06 08:22:43;;;;;;;5.48;2.93;;;;;;;15.87;32.09;99683.73;128234;1101;22367;-77
2021/05/06 08:25:15;;;;;;;7.05;3.10;;;;;;;15.97;32.12;99689.38;128285;1098;25063;-76
2021/05/06 08:27:45;;;;;;;6.78;2.70;;;;;;;16.08;31.62;99677.18;128046;1101;22364;-76
2021/05/06 08:30:15;;;;;;;8.33;3.23;;;;;;;16.06;31.96;99686.42;128233;1101;22547;-76
2021/05/06 08:32:44;;;;;;;6.18;3.18;;;;;;;15.98;31.79;99685.67;128274;1101;22379;-76
2021/05/06 08:35:13;;;;;;;7.13;3.55;;;;;;;16.04;32.57;99681.33;128539;1098;24216;-77
2021/05/06 08:37:42;;;;;;;5.78;3.53;;;;;;;16.36;32.70;99683.86;128272;1098;24721;-76
2021/05/06 08:40:11;;;;;;;8.70;3.10;;;;;;;16.62;32.04;99686.22;128256;1098;24160;-76
2021/05/06 08:42:42;;;;;;;6.08;2.73;;;;;;;16.80;31.79;99682.77;128301;1100;22709;-76
2021/05/06 08:45:12;;;;;;;5.68;2.83;;;;;;;16.97;31.59;99688.30;128264;1098;24462;-77
2021/05/06 08:47:45;;;;;;;6.20;2.60;;;;;;;17.23;31.34;99687.13;128238;1101;22343;-76
2021/05/06 08:50:19;;;;;;;4.10;2.85;;;;;;;17.43;30.89;99683.32;128277;1101;22344;-76
2021/05/06 08:52:49;;;;;;;8.63;2.50;;;;;;;17.46;30.85;99689.05;128353;1098;24364;-77
2021/05/06 08:55:18;;;;;;;6.28;2.45;;;;;;;17.52;30.25;99685.44;128307;1101;22423;-76
2021/05/06 08:57:49;;;;;;;5.05;2.38;;;;;;;17.80;30.32;99689.36;128232;1101;22332;-77
2021/05/06 09:00:20;;;;;;;6.38;3.03;;;;;;;18.04;29.86;99693.66;128268;1101;22366;-77
2021/05/06 09:02:50;;;;;;;8.23;3.08;;;;;;;18.26;29.39;99682.36;128245;1098;22333;-76
2021/05/06 09:05:22;;;;;;;5.48;2.55;;;;;;;18.38;28.81;99680.48;128250;1101;22321;-77
2021/05/06 09:07:51;;;;;;;6.50;2.55;;;;;;;18.21;28.51;99690.28;128276;1101;22465;-77
2021/05/06 09:10:42;;;;;;;5.40;2.38;;;;;;;17.80;28.63;99687.50;128019;1102;22773;-76
2021/05/06 09:13:31;;;;;;;6.30;2.70;;;;;;;17.92;28.69;99686.68;128066;1098;24243;-76
2021/05/06 09:16:02;;;;;;;9.20;2.68;;;;;;;17.90;28.82;99688.78;128255;1101;22327;-77
2021/05/06 09:19:03;;;;;;;6.90;3.00;;;;;;;18.15;28.89;99684.00;128192;1101;23809;-77
2021/05/06 09:21:39;;;;;;;13.33;3.55;;;;;;;18.32;28.51;99682.23;128015;1103;23128;-76
2021/05/06 09:24:20;;;;;;;6.63;2.35;;;;;;;18.60;28.14;99678.02;127984;1104;22507;-76
2021/05/06 09:26:53;;;;;;;6.58;4.05;;;;;;;18.77;27.91;99678.11;127981;1104;22344;-76
2021/05/06 09:29:37;;;;;;;8.43;4.03;;;;;;;18.98;27.92;99672.08;127942;1101;22406;-75
2021/05/06 09:32:20;;;;;;;5.90;3.30;;;;;;;19.12;27.78;99675.27;128011;1104;22358;-76
2021/05/06 09:34:55;;;;;;;9.13;3.13;;;;;;;19.16;27.16;99680.95;127977;1104;22355;-76
2021/05/06 09:37:31;;;;;;;5.13;2.40;;;;;;;18.97;27.25;99683.84;127729;1104;22349;-76
2021/05/06 09:40:07;;;;;;;5.75;2.28;;;;;;;18.70;27.62;99672.86;127988;1104;22436;-76
2021/05/06 09:42:47;;;;;;;8.05;2.40;;;;;;;18.42;27.72;99676.29;127566;1105;22380;-76
2021/05/06 09:45:20;;;;;;;4.88;2.10;;;;;;;18.25;28.30;99680.73;127509;1104;24592;-75
2021/05/06 09:48:09;;;;;;;7.48;2.30;;;;;;;18.43;28.35;99682.48;127579;1108;22358;-76
2021/05/06 09:50:42;;;;;;;5.50;2.10;;;;;;;18.56;27.89;99684.89;127777;1105;22380;-75
2021/05/06 09:53:18;;;;;;;3.63;2.10;;;;;;;18.75;26.91;99680.20;127586;1108;22392;-77
2021/05/06 09:55:48;;;;;;;6.45;2.40;;;;;;;18.76;26.93;99677.30;127589;1105;24495;-75
2021/05/06 09:58:23;;;;;;;5.23;1.90;;;;;;;18.78;27.06;99685.08;127720;1102;24513;-76
2021/05/06 10:00:53;;;;;;;3.75;2.30;;;;;;;18.89;26.63;99683.41;128165;1101;22332;-76
2021/05/06 10:03:35;;;;;;;5.63;2.45;;;;;;;19.05;26.56;99679.97;128246;1098;22440;-76
2021/05/06 10:06:14;;;;;;;4.88;2.48;;;;;;;19.12;26.39;99685.98;128321;1100;22446;-75
2021/05/06 10:08:43;;;;;;;6.88;3.15;;;;;;;19.32;26.88;99690.89;128280;1098;24135;-76
2021/05/06 10:11:17;;;;;;;66.40;7.23;;;;;;;19.40;25.62;99682.48;128346;1101;22333;-75
2021/05/06 10:13:49;;;;;;;7.15;2.93;;;;;;;19.09;25.79;99678.42;128264;1098;22436;-75
2021/05/06 10:16:18;;;;;;;6.93;2.28;;;;;;;18.31;26.18;99679.80;128364;1101;23113;-75
2021/05/06 10:18:47;;;;;;;4.53;2.35;;;;;;;17.64;26.61;99686.28;128532;1101;22437;-75
2021/05/06 10:21:20;;;;;;;5.23;3.00;;;;;;;17.13;27.04;99689.53;128210;1098;22456;-76
2021/05/06 10:23:53;;;;;;;3.10;2.00;;;;;;;17.01;27.87;99680.66;128234;1101;22345;-76
2021/05/06 10:26:26;;;;;;;4.03;1.90;;;;;;;16.86;27.09;99675.70;128228;1101;22361;-75
2021/05/06 10:28:55;;;;;;;3.10;1.80;;;;;;;16.42;27.23;99678.45;128306;1101;22343;-76
2021/05/06 10:31:24;;;;;;;5.83;2.75;;;;;;;16.31;27.40;99678.39;128281;1098;22333;-75
2021/05/06 10:33:55;;;;;;;8.50;2.45;;;;;;;16.41;27.73;99678.69;128280;1098;25617;-76
2021/05/06 10:36:24;;;;;;;5.75;2.55;;;;;;;16.53;27.28;99662.75;128246;1101;22447;-76
2021/05/06 10:38:54;;;;;;;6.00;2.20;;;;;;;16.28;26.85;99670.84;128244;1101;22334;-76
2021/05/06 10:41:22;;;;;;;4.63;2.30;;;;;;;16.04;27.17;99669.86;128004;1101;24138;-77
2021/05/06 10:44:09;;;;;;;5.38;2.08;;;;;;;16.09;27.75;99668.14;127971;1101;24240;-76
2021/05/06 10:46:59;;;;;;;8.00;3.60;;;;;;;16.32;28.01;99661.36;128093;1104;22385;-75
2021/05/06 10:49:51;;;;;;;5.28;2.50;;;;;;;16.32;27.58;99664.83;128087;1104;22525;-76
2021/05/06 10:52:40;;;;;;;4.30;2.08;;;;;;;16.28;28.03;99665.51;127956;1101;22799;-75
2021/05/06 10:55:14;;;;;;;7.20;2.10;;;;;;;16.36;28.33;99667.86;127996;1104;22472;-76
2021/05/06 10:57:43;;;;;;;5.00;2.43;;;;;;;16.38;28.14;99658.61;128045;1104;22377;-76
2021/05/06 11:00:25;;;;;;;5.57;2.20;;;;;;;16.24;27.34;99671.28;128128;1098;24867;-76
2021/05/06 11:03:03;;;;;;;4.63;2.25;;;;;;;16.12;27.91;99656.23;128222;1101;22349;-75
2021/05/06 11:05:32;;;;;;;4.43;2.70;;;;;;;16.04;27.93;99662.68;127971;1099;24252;-76
2021/05/06 11:08:04;;;;;;;2.70;1.53;;;;;;;15.96;28.32;99653.13;127603;1106;22369;-76
2021/05/06 11:11:07;;;;;;;3.10;2.03;;;;;;;15.80;28.04;99648.36;127820;1105;23140;-76
2021/05/06 11:14:12;;;;;;;4.15;2.48;;;;;;;15.64;28.82;99656.88;127562;1107;22412;-77
2021/05/06 11:16:42;;;;;;;4.80;2.38;;;;;;;15.41;28.70;99642.30;126958;1107;24380;-75
2021/05/06 11:19:16;;;;;;;6.08;1.93;;;;;;;15.36;28.88;99652.80;127073;1107;24473;-74
2021/05/06 11:21:45;;;;;;;6.23;2.93;;;;;;;15.34;28.65;99640.73;127067;1108;22386;-76
2021/05/06 11:24:34;;;;;;;7.08;3.43;;;;;;;15.34;28.96;99638.06;127431;1108;22458;-76
2021/05/06 11:27:10;;;;;;;7.03;3.37;;;;;;;15.26;28.93;99647.11;127505;1107;22829;-75
2021/05/06 11:29:50;;;;;;;8.85;2.83;;;;;;;15.17;29.21;99643.09;127605;1104;22384;-75
2021/05/06 11:32:35;;;;;;;5.58;2.75;;;;;;;15.08;29.15;99641.72;127084;1108;22498;-75
2021/05/06 11:35:05;;;;;;;8.10;2.83;;;;;;;15.03;29.57;99643.18;127021;1111;22390;-76
2021/05/06 11:37:36;;;;;;;11.63;5.13;;;;;;;14.98;29.46;99635.02;126676;1114;22895;-75
2021/05/06 11:40:18;;;;;;;8.15;2.83;;;;;;;15.00;29.60;99634.81;126608;1114;23284;-75
2021/05/06 11:42:47;;;;;;;5.88;2.53;;;;;;;15.12;29.98;99634.93;126646;1113;22601;-74
2021/05/06 11:45:28;;;;;;;5.58;2.48;;;;;;;15.24;29.78;99634.03;126601;1112;22428;-75
2021/05/06 11:47:57;;;;;;;7.80;2.60;;;;;;;15.22;29.31;99629.95;126903;1111;23289;-76
2021/05/06 11:50:33;;;;;;;5.40;2.60;;;;;;;15.12;29.43;99637.59;127129;1107;22369;-75
2021/05/06 11:53:03;;;;;;;4.70;2.43;;;;;;;15.05;29.72;99635.78;127708;1104;22433;-75
2021/05/06 11:55:44;;;;;;;5.55;2.40;;;;;;;14.96;29.52;99633.59;128101;1098;24225;-75
2021/05/06 11:58:27;;;;;;;7.27;2.57;;;;;;;14.80;29.88;99627.77;128326;1101;24265;-75
2021/05/06 12:00:56;;;;;;;4.70;1.93;;;;;;;14.74;30.39;99630.45;128028;1100;23307;-76
2021/05/06 12:03:40;;;;;;;3.45;2.13;;;;;;;14.72;30.30;99624.52;128041;1101;22362;-76
2021/05/06 12:06:09;;;;;;;6.05;2.40;;;;;;;14.80;30.61;99626.95;128287;1098;24034;-75
2021/05/06 12:08:48;;;;;;;4.93;2.80;;;;;;;14.87;30.50;99617.09;128236;1098;25001;-76
2021/05/06 12:11:16;;;;;;;5.30;3.48;;;;;;;14.82;30.40;99609.73;128229;1101;22422;-76
2021/05/06 12:13:46;;;;;;;6.85;3.03;;;;;;;14.91;30.67;99615.63;128209;1100;24186;-76
2021/05/06 12:16:24;;;;;;;5.75;2.43;;;;;;;14.96;30.76;99610.49;128211;1098;22364;-76
2021/05/06 12:19:10;;;;;;;4.25;2.18;;;;;;;15.05;30.79;99589.75;128361;1101;22379;-75
2021/05/06 12:21:57;;;;;;;6.48;2.48;;;;;;;15.19;30.75;99593.13;128244;1101;22347;-76
2021/05/06 12:24:41;;;;;;;4.58;2.95;;;;;;;15.23;30.27;99583.70;128381;1101;22943;-75
2021/05/06 12:27:29;;;;;;;5.80;2.43;;;;;;;15.19;30.05;99593.13;128254;1098;22346;-75
2021/05/06 12:29:59;;;;;;;5.23;1.88;;;;;;;15.20;29.80;99578.81;128244;1101;22349;-75
2021/05/06 12:32:33;;;;;;;6.63;3.17;;;;;;;15.21;29.50;99585.76;128524;1098;22360;-75
2021/05/06 12:35:04;;;;;;;3.35;2.33;;;;;;;15.21;29.42;99586.56;128240;1101;22361;-76
2021/05/06 12:37:33;;;;;;;5.98;2.30;;;;;;;15.21;29.53;99586.56;128066;1101;25733;-75
2021/05/06 12:40:14;;;;;;;5.98;2.20;;;;;;;15.21;29.89;99583.91;127935;1104;22360;-76
2021/05/06 12:42:42;;;;;;;5.50;2.37;;;;;;;15.12;28.97;99589.70;128027;1104;22336;-75
2021/05/06 12:45:16;;;;;;;7.23;2.03;;;;;;;15.01;29.30;99601.86;127969;1104;22335;-76
2021/05/06 12:47:49;;;;;;;16.83;2.93;;;;;;;14.85;29.30;99592.55;127998;1101;24514;-75
2021/05/06 12:50:26;;;;;;;8.37;2.60;;;;;;;14.68;29.65;99597.55;128017;1101;23447;-76
2021/05/06 12:53:19;;;;;;;9.83;3.08;;;;;;;14.68;29.86;99602.05;127966;1101;24316;-77
2021/05/06 12:55:51;;;;;;;12.85;4.05;;;;;;;14.64;30.21;99596.35;128060;1101;22346;-75
2021/05/06 12:58:24;;;;;;;21.23;5.43;;;;;;;14.55;30.33;99598.42;128196;1098;25022;-75
2021/05/06 13:01:12;;;;;;;10.63;3.65;;;;;;;14.41;30.55;99594.18;128052;1101;22364;-76
2021/05/06 13:03:45;;;;;;;6.45;3.50;;;;;;;14.21;31.03;99598.75;128236;1101;22344;-75
2021/05/06 13:06:18;;;;;;;6.85;3.35;;;;;;;14.15;31.41;99603.05;128201;1101;22355;-76
2021/05/06 13:08:48;;;;;;;4.63;3.03;;;;;;;14.19;31.91;99601.61;128020;1100;24323;-76
2021/05/06 13:11:21;;;;;;;6.50;3.07;;;;;;;14.30;32.51;99602.81;127936;1104;22362;-75
2021/05/06 13:13:53;;;;;;;4.68;2.43;;;;;;;14.34;32.36;99585.42;127971;1104;22715;-76
2021/05/06 13:16:49;;;;;;;9.53;3.50;;;;;;;14.30;32.54;99587.69;127970;1104;22355;-77
2021/05/06 13:19:20;;;;;;;6.50;2.73;;;;;;;14.19;32.61;99587.52;128235;1101;22406;-75
2021/05/06 13:21:57;;;;;;;7.80;2.98;;;;;;;14.17;33.19;99597.55;127949;1101;22449;-76
2021/05/06 13:24:40;;;;;;;6.78;3.28;;;;;;;14.16;32.99;99590.59;127987;1101;22343;-75
2021/05/06 13:27:15;;;;;;;7.30;3.95;;;;;;;14.18;32.90;99591.20;128119;1098;22360;-75
2021/05/06 13:29:59;;;;;;;4.58;3.08;;;;;;;14.16;33.39;99587.93;128095;1103;22348;-75
2021/05/06 13:32:36;;;;;;;4.88;3.03;;;;;;;14.06;33.89;99583.90;127486;1108;22383;-76
2021/05/06 13:35:14;;;;;;;8.85;4.35;;;;;;;14.03;33.62;99580.84;127551;1108;22493;-76
2021/05/06 13:37:46;;;;;;;10.75;3.85;;;;;;;13.86;34.03;99575.14;127574;1107;22429;-75
2021/05/06 13:40:15;;;;;;;7.60;3.65;;;;;;;13.82;34.49;99582.70;127565;1104;24226;-76
2021/05/06 13:42:44;;;;;;;5.35;3.08;;;;;;;13.80;34.78;99570.69;127521;1104;22389;-76
2021/05/06 13:45:13;;;;;;;5.88;3.60;;;;;;;13.83;34.97;99571.09;127444;1108;23925;-76
2021/05/06 13:47:47;;;;;;;6.97;3.97;;;;;;;13.89;34.72;99567.61;127158;1108;22410;-76
2021/05/06 13:50:17;;;;;;;6.88;3.23;;;;;;;13.94;34.96;99558.19;127617;1101;22353;-76
2021/05/06 13:52:46;;;;;;;10.08;4.60;;;;;;;13.93;34.91;99557.38;127964;1104;22497;-75
2021/05/06 13:55:17;;;;;;;8.53;4.00;;;;;;;13.90;35.25;99560.45;127427;1107;22393;-77
2021/05/06 13:57:46;;;;;;;11.68;4.75;;;;;;;13.97;35.27;99553.28;127555;1105;22369;-75
2021/05/06 14:00:15;;;;;;;8.60;4.73;;;;;;;13.98;35.38;99559.40;127500;1105;25005;-75
2021/05/06 14:02:44;;;;;;;10.05;7.45;;;;;;;14.01;35.08;99554.48;127512;1104;24566;-77
2021/05/06 14:05:13;;;;;;;7.78;5.45;;;;;;;13.96;34.42;99554.31;127583;1105;22377;-76
2021/05/06 14:07:42;;;;;;;5.75;4.13;;;;;;;13.92;34.93;99549.61;127934;1105;22357;-76
2021/05/06 14:10:11;;;;;;;10.70;6.53;;;;;;;13.94;34.67;99559.00;127528;1107;22405;-76
2021/05/06 14:12:40;;;;;;;4.28;2.90;;;;;;;14.01;34.80;99551.83;127566;1105;22379;-76
2021/05/06 14:15:10;;;;;;;6.33;3.33;;;;;;;14.10;34.70;99547.11;127993;1104;22348;-77
2021/05/06 14:17:41;;;;;;;4.70;3.38;;;;;;;14.16;34.56;99546.27;127990;1104;22374;-75
2021/05/06 14:20:11;;;;;;;6.87;3.40;;;;;;;14.24;34.75;99542.55;127965;1104;22370;-75
2021/05/06 14:22:40;;;;;;;3.50;2.30;;;;;;;14.28;34.34;99546.41;127979;1104;23071;-76
2021/05/06 14:25:10;;;;;;;4.38;2.28;;;;;;;14.27;34.54;99542.14;127986;1104;22371;-75
2021/05/06 14:27:38;;;;;;;3.63;2.23;;;;;;;14.20;34.80;99538.70;128054;1101;22359;-75
2021/05/06 14:30:08;;;;;;;3.25;2.68;;;;;;;14.15;34.65;99535.84;128228;1101;22360;-76
2021/05/06 14:32:37;;;;;;;4.00;2.45;;;;;;;14.09;34.44;99537.49;127997;1104;22375;-75
2021/05/06 14:35:07;;;;;;;4.13;2.10;;;;;;;14.07;34.79;99529.75;127992;1101;24593;-74
2021/05/06 14:37:36;;;;;;;4.23;2.50;;;;;;;14.03;34.50;99530.39;127984;1105;22358;-74
2021/05/06 14:40:09;;;;;;;4.85;2.70;;;;;;;13.94;34.31;99518.36;127980;1104;22464;-75
2021/05/06 14:42:37;;;;;;;12.28;3.00;;;;;;;13.83;34.57;99533.92;128031;1104;22381;-76
2021/05/06 14:45:09;;;;;;;6.75;2.80;;;;;;;13.81;34.74;99530.65;127992;1104;22360;-75
2021/05/06 14:47:42;;;;;;;;;;;;;;;13.75;34.58;99538.63;128063;1104;22358;-75
2021/05/06 14:50:14;;;;;;;5.98;3.30;;;;;;;13.72;35.09;99531.89;128054;1102;22988;-75
2021/05/06 14:52:43;;;;;;;5.10;3.40;;;;;;;13.77;35.03;99536.59;128231;1101;22371;-75
2021/05/06 14:55:13;;;;;;;5.68;3.30;;;;;;;13.71;35.10;99534.77;128326;1098;24462;-75
2021/05/06 14:57:41;;;;;;;8.00;3.28;;;;;;;13.69;35.48;99534.15;128226;1101;23129;-75
2021/05/06 15:00:14;;;;;;;8.95;3.60;;;;;;;13.71;35.67;99540.08;127959;1104;22357;-76
2021/05/06 15:02:44;;;;;;;8.70;3.17;;;;;;;13.72;35.70;99541.70;128169;1101;24574;-75
2021/05/06 15:05:19;;;;;;;12.03;2.70;;;;;;;13.71;35.90;99532.11;128028;1104;22390;-76